createdAt,value
2023-06-19T00:11:59.991Z,94.81
2023-06-19T00:27:06.209Z,91.97
2023-06-19T00:42:11.881Z,89.79
2023-06-19T00:57:17.412Z,91.93
2023-06-19T01:12:29.532Z,90.14
2023-06-19T01:27:35.844Z,91.05
2023-06-19T01:42:43.316Z,92.00
2023-06-19T01:57:48.907Z,92.86
2023-06-19T02:12:54.501Z,92.53
2023-06-19T02:28:00.044Z,93.91
2023-06-19T02:43:05.597Z,94.46
2023-06-19T02:58:12.003Z,95.56
2023-06-19T03:13:17.698Z,96.87
2023-06-19T03:28:23.095Z,96.36
2023-06-19T03:43:28.646Z,95.39
2023-06-19T03:58:34.087Z,97.92
2023-06-19T04:13:40.030Z,96.36
2023-06-19T04:28:45.636Z,94.86
2023-06-19T04:43:51.194Z,94.85
2023-06-19T04:59:00.868Z,95.35
2023-06-19T05:14:06.831Z,94.60
2023-06-19T05:29:12.449Z,94.46
2023-06-19T05:44:18.217Z,94.98
2023-06-19T05:59:24.304Z,93.88
2023-06-19T06:14:29.941Z,94.12
2023-06-19T06:29:35.344Z,93.83
2023-06-19T06:44:40.896Z,92.28
2023-06-19T06:59:46.451Z,90.38
2023-06-19T07:14:55.584Z,87.99
2023-06-19T07:30:01.214Z,86.00
2023-06-19T07:45:07.938Z,85.95
2023-06-19T08:00:15.932Z,79.91
2023-06-19T08:15:21.469Z,75.73
2023-06-19T08:30:27.791Z,71.72
2023-06-19T08:45:33.651Z,71.01
2023-06-19T09:00:39.176Z,67.75
2023-06-19T09:15:44.661Z,64.88
2023-06-19T09:30:58.199Z,61.88
2023-06-19T09:46:04.669Z,63.34
2023-06-19T10:01:10.447Z,59.83
2023-06-19T10:16:25.511Z,58.90
2023-06-19T10:31:32.094Z,59.92
2023-06-19T10:46:39.021Z,57.55
2023-06-19T11:01:47.209Z,57.82
2023-06-19T11:16:52.862Z,59.50
2023-06-19T11:32:12.027Z,60.67
2023-06-19T11:47:20.594Z,62.28
2023-06-19T12:02:26.397Z,64.90
2023-06-19T12:17:32.807Z,64.54
2023-06-19T12:32:38.497Z,65.92
2023-06-19T12:47:44.284Z,64.52
2023-06-19T13:02:50.128Z,64.05
2023-06-19T13:17:56.052Z,60.15
2023-06-19T13:33:03.912Z,60.74
2023-06-19T13:48:10.766Z,56.83
2023-06-19T14:03:16.680Z,54.60
2023-06-19T14:18:22.617Z,56.55
2023-06-19T14:33:28.538Z,57.76
2023-06-19T14:48:34.684Z,54.97
2023-06-19T15:03:40.521Z,55.67
2023-06-19T15:18:47.712Z,55.81
2023-06-19T15:33:53.546Z,53.57
2023-06-19T15:49:00.151Z,55.15
2023-06-19T16:04:06.321Z,55.78
2023-06-19T16:19:12.095Z,54.23
2023-06-19T16:34:17.807Z,57.32
2023-06-19T16:49:23.825Z,56.68
2023-06-19T17:04:29.526Z,58.07
2023-06-19T17:19:35.142Z,57.72
2023-06-19T17:34:40.887Z,57.75
2023-06-19T17:49:46.456Z,59.53
2023-06-19T18:04:52.038Z,60.29
2023-06-19T18:19:57.575Z,60.62
2023-06-19T18:35:03.315Z,61.73
2023-06-19T18:50:12.764Z,64.16
2023-06-19T19:05:18.452Z,66.75
2023-06-19T19:20:24.122Z,66.78
2023-06-19T19:35:30.211Z,68.52
2023-06-19T19:50:35.713Z,68.70
2023-06-19T20:05:41.439Z,70.54
2023-06-19T20:20:47.054Z,73.30
2023-06-19T20:35:52.503Z,72.48
2023-06-19T20:50:58.610Z,78.01
2023-06-19T21:06:04.094Z,77.43
2023-06-19T21:21:09.448Z,81.81
2023-06-19T21:36:15.091Z,83.24
2023-06-19T21:51:20.521Z,81.41
2023-06-19T22:06:26.016Z,84.30
2023-06-19T22:21:31.874Z,90.75
2023-06-19T22:36:37.410Z,95.10
2023-06-19T22:51:43.214Z,95.28
2023-06-19T23:06:49.004Z,93.93
2023-06-19T23:21:55.729Z,94.44
2023-06-19T23:37:01.286Z,97.21
2023-06-19T23:52:08.200Z,99.86
